createdAt,value
2017-11-06T00:00:11.271Z,969.38
2017-11-06T00:01:11.093Z,969.35
2017-11-06T00:02:11.065Z,969.38
2017-11-06T00:03:11.099Z,969.37
2017-11-06T00:04:11.548Z,969.43
2017-11-06T00:05:11.543Z,969.46
2017-11-06T00:06:11.448Z,969.48
2017-11-06T00:07:11.336Z,969.47
2017-11-06T00:08:11.361Z,969.53
2017-11-06T00:09:11.379Z,969.56
2017-11-06T00:10:11.906Z,969.61
2017-11-06T00:11:11.600Z,969.57
2017-11-06T00:12:11.625Z,969.60
2017-11-06T00:13:11.554Z,969.61
2017-11-06T00:14:11.761Z,969.57
2017-11-06T00:15:11.988Z,969.57
2017-11-06T00:16:11.899Z,969.54
2017-11-06T00:17:11.763Z,969.54
2017-11-06T00:18:12.316Z,969.51
2017-11-06T00:19:11.785Z,969.50
2017-11-06T00:20:12.174Z,969.51
2017-11-06T00:21:12.013Z,969.51
2017-11-06T00:22:12.008Z,969.48
2017-11-06T00:23:12.097Z,969.49
2017-11-06T00:24:12.114Z,969.49
2017-11-06T00:25:12.544Z,969.50
2017-11-06T00:26:12.345Z,969.53
2017-11-06T00:27:12.151Z,969.54
2017-11-06T00:28:12.382Z,969.53
2017-11-06T00:29:12.483Z,969.54
2017-11-06T00:30:12.760Z,969.57
2017-11-06T00:31:12.753Z,969.55
2017-11-06T00:32:12.718Z,969.57
2017-11-06T00:33:12.539Z,969.56
2017-11-06T00:34:13.344Z,969.59
2017-11-06T00:35:12.996Z,969.61
2017-11-06T00:36:12.789Z,969.67
2017-11-06T00:37:12.687Z,969.67
2017-11-06T00:38:12.677Z,969.69
2017-11-06T00:39:12.854Z,969.71
2017-11-06T00:40:13.136Z,969.71
2017-11-06T00:41:13.079Z,969.73
2017-11-06T00:42:12.957Z,969.74
2017-11-06T00:43:12.850Z,969.78
2017-11-06T00:44:12.971Z,969.78
2017-11-06T00:45:13.306Z,969.78
2017-11-06T00:46:13.029Z,969.83
2017-11-06T00:47:13.206Z,969.78
2017-11-06T00:48:13.202Z,969.78
2017-11-06T00:49:13.346Z,969.81
